sensor_id;sensor_type;location;lat;lon;timestamp;pressure;altitude;pressure_sealevel;temperature;humidity
54455;BME280;40364;52.270;10.546;2023-09-30T00:00:46;101279.84;;;25.88;53.13
54455;BME280;40364;52.270;10.546;2023-09-30T00:03:13;101284.84;;;26.31;51.84
54455;BME280;40364;52.270;10.546;2023-09-30T00:05:39;101291.97;;;25.96;52.10
54455;BME280;40364;52.270;10.546;2023-09-30T00:08:05;101304.00;;;26.07;52.61
54455;BME280;40364;52.270;10.546;2023-09-30T00:10:33;101308.78;;;26.13;51.93
54455;BME280;40364;52.270;10.546;2023-09-30T00:13:00;101304.28;;;25.89;53.05
54455;BME280;40364;52.270;10.546;2023-09-30T00:15:26;101306.75;;;25.30;54.41
54455;BME280;40364;52.270;10.546;2023-09-30T00:17:53;101311.09;;;26.22;51.19
54455;BME280;40364;52.270;10.546;2023-09-30T00:20:20;101320.16;;;26.17;51.68
54455;BME280;40364;52.270;10.546;2023-09-30T00:22:47;101314.22;;;26.31;51.07
54455;BME280;40364;52.270;10.546;2023-09-30T00:25:14;101324.00;;;25.80;52.12
54455;BME280;40364;52.270;10.546;2023-09-30T00:27:41;101329.25;;;25.51;52.28
54455;BME280;40364;52.270;10.546;2023-09-30T00:30:08;101333.44;;;25.43;54.23
54455;BME280;40364;52.270;10.546;2023-09-30T00:32:35;101339.00;;;25.23;55.32
54455;BME280;40364;52.270;10.546;2023-09-30T00:35:01;101337.22;;;25.02;55.36
54455;BME280;40364;52.270;10.546;2023-09-30T00:37:28;101339.41;;;25.22;54.95
54455;BME280;40364;52.270;10.546;2023-09-30T00:39:54;101340.97;;;25.30;53.68
54455;BME280;40364;52.270;10.546;2023-09-30T00:42:20;101350.00;;;24.83;55.72
54455;BME280;40364;52.270;10.546;2023-09-30T00:44:48;101359.81;;;24.79;56.49
54455;BME280;40364;52.270;10.546;2023-09-30T00:47:14;101354.75;;;25.96;51.83
54455;BME280;40364;52.270;10.546;2023-09-30T00:49:41;101344.06;;;25.39;53.88
54455;BME280;40364;52.270;10.546;2023-09-30T00:52:08;101348.69;;;25.63;52.69
54455;BME280;40364;52.270;10.546;2023-09-30T00:54:35;101353.69;;;25.52;53.02
54455;BME280;40364;52.270;10.546;2023-09-30T00:57:03;101362.44;;;24.11;57.91
54455;BME280;40364;52.270;10.546;2023-09-30T00:59:30;101365.66;;;24.65;56.23
54455;BME280;40364;52.270;10.546;2023-09-30T01:01:59;101353.88;;;24.63;56.53
54455;BME280;40364;52.270;10.546;2023-09-30T01:04:26;101349.31;;;25.10;54.58
54455;BME280;40364;52.270;10.546;2023-09-30T01:06:53;101356.28;;;24.68;55.92
54455;BME280;40364;52.270;10.546;2023-09-30T01:09:22;101357.94;;;24.65;55.63
54455;BME280;40364;52.270;10.546;2023-09-30T01:11:49;101370.56;;;24.61;55.75
54455;BME280;40364;52.270;10.546;2023-09-30T01:14:25;101374.41;;;24.84;54.54
54455;BME280;40364;52.270;10.546;2023-09-30T01:16:52;101379.31;;;24.80;55.31
54455;BME280;40364;52.270;10.546;2023-09-30T01:19:19;101379.00;;;24.23;56.64
54455;BME280;40364;52.270;10.546;2023-09-30T01:21:47;101378.00;;;24.92;54.87
54455;BME280;40364;52.270;10.546;2023-09-30T01:24:14;101367.41;;;24.93;54.55
54455;BME280;40364;52.270;10.546;2023-09-30T01:26:40;101362.34;;;24.25;56.50
54455;BME280;40364;52.270;10.546;2023-09-30T01:29:07;101358.44;;;23.98;58.67
54455;BME280;40364;52.270;10.546;2023-09-30T01:31:36;101362.91;;;23.95;58.83
54455;BME280;40364;52.270;10.546;2023-09-30T01:34:02;101371.28;;;24.20;57.60
54455;BME280;40364;52.270;10.546;2023-09-30T01:36:29;101371.59;;;23.77;59.86
54455;BME280;40364;52.270;10.546;2023-09-30T01:38:56;101386.94;;;23.91;59.25
54455;BME280;40364;52.270;10.546;2023-09-30T01:41:23;101372.03;;;24.35;56.87
54455;BME280;40364;52.270;10.546;2023-09-30T01:43:49;101379.28;;;24.43;56.39
54455;BME280;40364;52.270;10.546;2023-09-30T01:46:16;101379.81;;;24.27;56.99
54455;BME280;40364;52.270;10.546;2023-09-30T01:48:42;101392.09;;;24.65;55.34
54455;BME280;40364;52.270;10.546;2023-09-30T01:51:09;101384.31;;;24.17;57.01
54455;BME280;40364;52.270;10.546;2023-09-30T01:53:35;101388.69;;;24.81;54.12
54455;BME280;40364;52.270;10.546;2023-09-30T01:56:03;101396.69;;;23.90;58.14
54455;BME280;40364;52.270;10.546;2023-09-30T01:58:29;101391.69;;;24.15;56.40
54455;BME280;40364;52.270;10.546;2023-09-30T02:01:01;101398.00;;;24.40;55.61
54455;BME280;40364;52.270;10.546;2023-09-30T02:03:28;101396.00;;;23.71;57.42
54455;BME280;40364;52.270;10.546;2023-09-30T02:05:55;101407.88;;;23.34;60.18
54455;BME280;40364;52.270;10.546;2023-09-30T02:08:21;101406.59;;;23.60;59.60
54455;BME280;40364;52.270;10.546;2023-09-30T02:10:48;101412.25;;;23.71;59.15
54455;BME280;40364;52.270;10.546;2023-09-30T02:13:17;101416.94;;;22.90;61.75
54455;BME280;40364;52.270;10.546;2023-09-30T02:15:44;101425.03;;;22.60;63.74
54455;BME280;40364;52.270;10.546;2023-09-30T02:18:10;101415.69;;;23.02;62.05
54455;BME280;40364;52.270;10.546;2023-09-30T02:20:37;101401.88;;;24.05;57.33
54455;BME280;40364;52.270;10.546;2023-09-30T02:23:04;101401.56;;;24.51;55.36
54455;BME280;40364;52.270;10.546;2023-09-30T02:25:31;101402.47;;;23.75;57.28
54455;BME280;40364;52.270;10.546;2023-09-30T02:27:58;101406.53;;;23.74;57.20
54455;BME280;40364;52.270;10.546;2023-09-30T02:30:26;101406.38;;;22.80;62.32
54455;BME280;40364;52.270;10.546;2023-09-30T02:32:53;101406.22;;;23.47;59.89
54455;BME280;40364;52.270;10.546;2023-09-30T02:35:21;101418.75;;;23.68;58.54
54455;BME280;40364;52.270;10.546;2023-09-30T02:37:47;101409.00;;;23.72;57.94
54455;BME280;40364;52.270;10.546;2023-09-30T02:40:14;101412.97;;;23.85;57.16
54455;BME280;40364;52.270;10.546;2023-09-30T02:42:42;101412.59;;;23.83;56.89
54455;BME280;40364;52.270;10.546;2023-09-30T02:45:10;101410.81;;;22.67;62.56
54455;BME280;40364;52.270;10.546;2023-09-30T02:47:38;101410.16;;;23.82;57.54
54455;BME280;40364;52.270;10.546;2023-09-30T02:50:05;101406.28;;;24.17;55.76
54455;BME280;40364;52.270;10.546;2023-09-30T02:52:33;101402.53;;;23.58;57.67
54455;BME280;40364;52.270;10.546;2023-09-30T02:54:59;101404.19;;;23.48;58.48
54455;BME280;40364;52.270;10.546;2023-09-30T02:57:26;101406.81;;;23.98;55.71
54455;BME280;40364;52.270;10.546;2023-09-30T02:59:53;101414.38;;;23.31;58.74
54455;BME280;40364;52.270;10.546;2023-09-30T03:02:21;101415.97;;;23.50;57.44
54455;BME280;40364;52.270;10.546;2023-09-30T03:04:50;101413.06;;;23.71;57.33
54455;BME280;40364;52.270;10.546;2023-09-30T03:07:18;101422.78;;;23.74;56.51
54455;BME280;40364;52.270;10.546;2023-09-30T03:09:44;101428.91;;;23.65;56.99
54455;BME280;40364;52.270;10.546;2023-09-30T03:12:12;101428.19;;;24.27;54.87
54455;BME280;40364;52.270;10.546;2023-09-30T03:14:39;101415.13;;;23.57;56.58
54455;BME280;40364;52.270;10.546;2023-09-30T03:17:05;101423.50;;;23.89;55.66
54455;BME280;40364;52.270;10.546;2023-09-30T03:19:36;101429.59;;;23.91;55.92
54455;BME280;40364;52.270;10.546;2023-09-30T03:22:04;101429.09;;;24.13;54.77
54455;BME280;40364;52.270;10.546;2023-09-30T03:24:31;101426.56;;;24.23;54.43
54455;BME280;40364;52.270;10.546;2023-09-30T03:26:57;101425.72;;;23.45;56.44
54455;BME280;40364;52.270;10.546;2023-09-30T03:29:24;101415.19;;;23.53;57.44
54455;BME280;40364;52.270;10.546;2023-09-30T03:31:51;101426.06;;;23.72;56.20
54455;BME280;40364;52.270;10.546;2023-09-30T03:34:17;101432.72;;;23.16;58.07
54455;BME280;40364;52.270;10.546;2023-09-30T03:36:45;101425.69;;;23.56;57.14
54455;BME280;40364;52.270;10.546;2023-09-30T03:39:13;101424.66;;;24.05;54.54
54455;BME280;40364;52.270;10.546;2023-09-30T03:41:40;101426.75;;;23.91;55.36
54455;BME280;40364;52.270;10.546;2023-09-30T03:44:07;101418.59;;;24.00;55.49
54455;BME280;40364;52.270;10.546;2023-09-30T03:46:33;101422.16;;;23.16;58.45
54455;BME280;40364;52.270;10.546;2023-09-30T03:48:59;101417.34;;;22.85;60.66
54455;BME280;40364;52.270;10.546;2023-09-30T03:51:27;101423.81;;;22.54;62.22
54455;BME280;40364;52.270;10.546;2023-09-30T03:53:54;101426.44;;;23.74;57.28
54455;BME280;40364;52.270;10.546;2023-09-30T03:56:22;101413.28;;;22.54;62.21
54455;BME280;40364;52.270;10.546;2023-09-30T03:58:48;101412.13;;;23.89;56.43
54455;BME280;40364;52.270;10.546;2023-09-30T04:01:15;101423.72;;;23.39;58.96
54455;BME280;40364;52.270;10.546;2023-09-30T04:03:42;101422.06;;;23.48;58.74
54455;BME280;40364;52.270;10.546;2023-09-30T04:06:09;101419.13;;;23.77;57.08
54455;BME280;40364;52.270;10.546;2023-09-30T04:08:36;101431.75;;;23.69;57.02
54455;BME280;40364;52.270;10.546;2023-09-30T04:11:02;101434.28;;;23.35;58.79
54455;BME280;40364;52.270;10.546;2023-09-30T04:13:30;101434.75;;;23.08;59.92
54455;BME280;40364;52.270;10.546;2023-09-30T04:15:58;101422.50;;;24.20;55.15
54455;BME280;40364;52.270;10.546;2023-09-30T04:18:24;101422.78;;;23.77;56.65
54455;BME280;40364;52.270;10.546;2023-09-30T04:20:51;101420.38;;;23.65;56.85
54455;BME280;40364;52.270;10.546;2023-09-30T04:23:17;101425.53;;;23.95;56.19
54455;BME280;40364;52.270;10.546;2023-09-30T04:25:45;101426.09;;;23.55;57.27
54455;BME280;40364;52.270;10.546;2023-09-30T04:28:11;101426.66;;;24.12;55.20
54455;BME280;40364;52.270;10.546;2023-09-30T04:30:40;101425.06;;;22.88;60.36
54455;BME280;40364;52.270;10.546;2023-09-30T04:33:07;101430.81;;;23.90;56.15
54455;BME280;40364;52.270;10.546;2023-09-30T04:35:34;101443.56;;;23.60;56.91
54455;BME280;40364;52.270;10.546;2023-09-30T04:38:01;101440.84;;;22.75;61.37
54455;BME280;40364;52.270;10.546;2023-09-30T04:40:29;101437.59;;;22.73;61.34
54455;BME280;40364;52.270;10.546;2023-09-30T04:42:55;101445.72;;;23.13;60.18
54455;BME280;40364;52.270;10.546;2023-09-30T04:45:23;101436.81;;;22.62;62.16
54455;BME280;40364;52.270;10.546;2023-09-30T04:47:52;101442.28;;;23.79;57.13
54455;BME280;40364;52.270;10.546;2023-09-30T04:50:21;101443.69;;;23.07;60.37
54455;BME280;40364;52.270;10.546;2023-09-30T04:52:47;101445.69;;;22.67;62.25
54455;BME280;40364;52.270;10.546;2023-09-30T04:55:15;101444.09;;;22.48;62.45
54455;BME280;40364;52.270;10.546;2023-09-30T04:57:42;101452.84;;;21.90;66.71
54455;BME280;40364;52.270;10.546;2023-09-30T05:00:10;101463.03;;;22.02;66.18
54455;BME280;40364;52.270;10.546;2023-09-30T05:02:37;101460.16;;;21.95;67.00
54455;BME280;40364;52.270;10.546;2023-09-30T05:05:05;101455.56;;;21.62;68.68
54455;BME280;40364;52.270;10.546;2023-09-30T05:07:32;101463.13;;;21.33;70.66
54455;BME280;40364;52.270;10.546;2023-09-30T05:09:58;101465.88;;;21.22;72.61
54455;BME280;40364;52.270;10.546;2023-09-30T05:12:25;101468.09;;;21.57;69.45
54455;BME280;40364;52.270;10.546;2023-09-30T05:14:52;101470.28;;;21.19;71.12
54455;BME280;40364;52.270;10.546;2023-09-30T05:17:20;101467.28;;;21.53;71.42
54455;BME280;40364;52.270;10.546;2023-09-30T05:19:47;101475.66;;;22.22;66.36
54455;BME280;40364;52.270;10.546;2023-09-30T05:22:15;101474.47;;;22.37;64.94
54455;BME280;40364;52.270;10.546;2023-09-30T05:24:44;101474.72;;;21.90;67.84
54455;BME280;40364;52.270;10.546;2023-09-30T05:27:10;101472.44;;;23.37;60.96
54455;BME280;40364;52.270;10.546;2023-09-30T05:29:36;101474.91;;;22.71;62.30
54455;BME280;40364;52.270;10.546;2023-09-30T05:32:03;101478.75;;;21.81;67.25
54455;BME280;40364;52.270;10.546;2023-09-30T05:34:30;101469.19;;;22.36;65.64
54455;BME280;40364;52.270;10.546;2023-09-30T05:36:56;101481.47;;;21.57;69.00
54455;BME280;40364;52.270;10.546;2023-09-30T05:39:24;101486.81;;;21.76;68.88
54455;BME280;40364;52.270;10.546;2023-09-30T05:41:51;101495.63;;;23.14;60.99
54455;BME280;40364;52.270;10.546;2023-09-30T05:44:17;101487.03;;;22.26;65.33
54455;BME280;40364;52.270;10.546;2023-09-30T05:46:44;101481.81;;;22.49;64.19
54455;BME280;40364;52.270;10.546;2023-09-30T05:49:10;101494.84;;;22.89;62.60
54455;BME280;40364;52.270;10.546;2023-09-30T05:51:38;101491.25;;;21.73;68.99
54455;BME280;40364;52.270;10.546;2023-09-30T05:54:06;101492.50;;;21.79;67.93
54455;BME280;40364;52.270;10.546;2023-09-30T05:56:36;101485.50;;;22.78;63.77
54455;BME280;40364;52.270;10.546;2023-09-30T05:59:03;101485.84;;;22.48;63.88
54455;BME280;40364;52.270;10.546;2023-09-30T06:01:30;101493.22;;;23.16;60.66
54455;BME280;40364;52.270;10.546;2023-09-30T06:03:57;101487.94;;;23.18;60.17
54455;BME280;40364;52.270;10.546;2023-09-30T06:06:24;101486.28;;;22.61;61.98
54455;BME280;40364;52.270;10.546;2023-09-30T06:08:53;101487.09;;;22.72;61.73
54455;BME280;40364;52.270;10.546;2023-09-30T06:11:20;101482.63;;;22.74;62.72
54455;BME280;40364;52.270;10.546;2023-09-30T06:13:50;101476.16;;;22.95;60.08
54455;BME280;40364;52.270;10.546;2023-09-30T06:16:18;101488.75;;;22.80;61.92
54455;BME280;40364;52.270;10.546;2023-09-30T06:18:44;101487.06;;;22.50;62.47
54455;BME280;40364;52.270;10.546;2023-09-30T06:21:11;101493.22;;;24.36;55.67
54455;BME280;40364;52.270;10.546;2023-09-30T06:23:38;101498.97;;;24.18;54.95
54455;BME280;40364;52.270;10.546;2023-09-30T06:26:04;101502.91;;;23.44;57.31
54455;BME280;40364;52.270;10.546;2023-09-30T06:28:30;101508.09;;;23.84;57.14
54455;BME280;40364;52.270;10.546;2023-09-30T06:31:00;101513.47;;;23.26;58.92
54455;BME280;40364;52.270;10.546;2023-09-30T06:33:27;101517.13;;;23.44;58.65
54455;BME280;40364;52.270;10.546;2023-09-30T06:35:54;101515.13;;;22.84;61.50
54455;BME280;40364;52.270;10.546;2023-09-30T06:38:21;101527.53;;;22.19;64.47
54455;BME280;40364;52.270;10.546;2023-09-30T06:40:48;101538.25;;;23.00;60.77
54455;BME280;40364;52.270;10.546;2023-09-30T06:43:14;101552.84;;;23.38;59.98
54455;BME280;40364;52.270;10.546;2023-09-30T06:45:41;101548.75;;;22.68;62.26
54455;BME280;40364;52.270;10.546;2023-09-30T06:48:10;101549.53;;;22.65;63.38
54455;BME280;40364;52.270;10.546;2023-09-30T06:50:38;101560.16;;;22.82;63.14
54455;BME280;40364;52.270;10.546;2023-09-30T06:53:05;101560.50;;;22.63;62.75
54455;BME280;40364;52.270;10.546;2023-09-30T06:55:31;101548.63;;;22.18;64.91
54455;BME280;40364;52.270;10.546;2023-09-30T06:57:58;101564.13;;;22.52;64.62
54455;BME280;40364;52.270;10.546;2023-09-30T07:00:26;101566.19;;;21.72;67.81
54455;BME280;40364;52.270;10.546;2023-09-30T07:02:52;101567.78;;;22.46;64.75
54455;BME280;40364;52.270;10.546;2023-09-30T07:05:20;101567.34;;;22.40;64.45
54455;BME280;40364;52.270;10.546;2023-09-30T07:07:47;101563.00;;;23.25;60.57
54455;BME280;40364;52.270;10.546;2023-09-30T07:10:13;101564.06;;;22.24;65.54
54455;BME280;40364;52.270;10.546;2023-09-30T07:12:40;101566.25;;;23.37;61.36
54455;BME280;40364;52.270;10.546;2023-09-30T07:15:07;101564.19;;;23.80;58.89
54455;BME280;40364;52.270;10.546;2023-09-30T07:17:34;101558.53;;;22.95;62.15
54455;BME280;40364;52.270;10.546;2023-09-30T07:20:00;101561.72;;;22.58;64.63
54455;BME280;40364;52.270;10.546;2023-09-30T07:22:29;101569.91;;;23.56;60.27
54455;BME280;40364;52.270;10.546;2023-09-30T07:24:55;101567.09;;;23.16;60.71
54455;BME280;40364;52.270;10.546;2023-09-30T07:27:21;101578.03;;;23.07;61.67
54455;BME280;40364;52.270;10.546;2023-09-30T07:29:48;101584.53;;;22.97;61.19
54455;BME280;40364;52.270;10.546;2023-09-30T07:32:14;101579.97;;;22.54;64.14
54455;BME280;40364;52.270;10.546;2023-09-30T07:34:41;101579.81;;;22.14;66.48
54455;BME280;40364;52.270;10.546;2023-09-30T07:37:07;101575.13;;;22.68;63.93
54455;BME280;40364;52.270;10.546;2023-09-30T07:39:35;101592.84;;;22.33;65.82
54455;BME280;40364;52.270;10.546;2023-09-30T07:42:02;101589.28;;;22.54;64.60
54455;BME280;40364;52.270;10.546;2023-09-30T07:44:29;101593.47;;;23.70;58.80
54455;BME280;40364;52.270;10.546;2023-09-30T07:46:55;101590.63;;;22.92;63.52
54455;BME280;40364;52.270;10.546;2023-09-30T07:49:21;101594.28;;;23.10;63.07
54455;BME280;40364;52.270;10.546;2023-09-30T07:51:49;101595.91;;;23.72;58.91
54455;BME280;40364;52.270;10.546;2023-09-30T07:54:15;101599.91;;;22.78;62.66
54455;BME280;40364;52.270;10.546;2023-09-30T07:56:43;101603.97;;;23.98;58.30
54455;BME280;40364;52.270;10.546;2023-09-30T07:59:10;101614.59;;;23.34;60.33
54455;BME280;40364;52.270;10.546;2023-09-30T08:01:36;101603.22;;;23.12;61.46
54455;BME280;40364;52.270;10.546;2023-09-30T08:04:03;101615.22;;;24.44;56.80
54455;BME280;40364;52.270;10.546;2023-09-30T08:06:29;101611.25;;;24.13;57.03
54455;BME280;40364;52.270;10.546;2023-09-30T08:08:56;101618.81;;;24.56;54.39
54455;BME280;40364;52.270;10.546;2023-09-30T08:11:22;101617.16;;;24.62;55.62
54455;BME280;40364;52.270;10.546;2023-09-30T08:13:53;101610.13;;;23.18;60.89
54455;BME280;40364;52.270;10.546;2023-09-30T08:16:20;101615.56;;;24.50;56.08
54455;BME280;40364;52.270;10.546;2023-09-30T08:18:46;101613.69;;;24.08;56.47
54455;BME280;40364;52.270;10.546;2023-09-30T08:21:14;101615.34;;;24.96;54.06
54455;BME280;40364;52.270;10.546;2023-09-30T08:23:40;101623.03;;;25.06;53.12
54455;BME280;40364;52.270;10.546;2023-09-30T08:26:06;101613.75;;;23.30;60.38
54455;BME280;40364;52.270;10.546;2023-09-30T08:28:33;101628.41;;;23.17;59.71
54455;BME280;40364;52.270;10.546;2023-09-30T08:31:04;101619.41;;;24.95;54.06
54455;BME280;40364;52.270;10.546;2023-09-30T08:33:31;101620.09;;;26.03;50.87
54455;BME280;40364;52.270;10.546;2023-09-30T08:36:01;101633.47;;;25.72;51.01
54455;BME280;40364;52.270;10.546;2023-09-30T08:38:32;101636.06;;;25.52;51.09
54455;BME280;40364;52.270;10.546;2023-09-30T08:40:58;101637.59;;;26.05;50.25
54455;BME280;40364;52.270;10.546;2023-09-30T08:43:25;101631.91;;;26.05;49.89
54455;BME280;40364;52.270;10.546;2023-09-30T08:45:53;101631.91;;;25.67;50.89
54455;BME280;40364;52.270;10.546;2023-09-30T08:48:21;101635.41;;;24.75;52.49
54455;BME280;40364;52.270;10.546;2023-09-30T08:50:51;101634.44;;;24.08;57.02
54455;BME280;40364;52.270;10.546;2023-09-30T08:53:19;101634.44;;;24.01;57.77
54455;BME280;40364;52.270;10.546;2023-09-30T08:55:46;101634.47;;;24.92;55.05
54455;BME280;40364;52.270;10.546;2023-09-30T08:58:12;101632.78;;;25.05;53.00
54455;BME280;40364;52.270;10.546;2023-09-30T09:00:39;101635.38;;;26.57;48.51
54455;BME280;40364;52.270;10.546;2023-09-30T09:03:06;101634.09;;;26.28;49.50
54455;BME280;40364;52.270;10.546;2023-09-30T09:05:35;101630.13;;;25.36;51.46
54455;BME280;40364;52.270;10.546;2023-09-30T09:08:01;101632.88;;;24.84;51.69
54455;BME280;40364;52.270;10.546;2023-09-30T09:10:28;101622.41;;;25.33;52.46
54455;BME280;40364;52.270;10.546;2023-09-30T09:12:54;101622.41;;;25.77;49.77
54455;BME280;40364;52.270;10.546;2023-09-30T09:15:23;101630.34;;;26.34;48.99
54455;BME280;40364;52.270;10.546;2023-09-30T09:17:50;101633.72;;;26.60;48.12
54455;BME280;40364;52.270;10.546;2023-09-30T09:20:17;101630.44;;;24.86;54.50
54455;BME280;40364;52.270;10.546;2023-09-30T09:22:48;101632.50;;;25.89;51.57
54455;BME280;40364;52.270;10.546;2023-09-30T09:25:15;101630.94;;;27.37;46.95
54455;BME280;40364;52.270;10.546;2023-09-30T09:27:42;101642.72;;;26.58;47.85
54455;BME280;40364;52.270;10.546;2023-09-30T09:30:16;101649.00;;;26.76;47.67
54455;BME280;40364;52.270;10.546;2023-09-30T09:32:52;101642.78;;;25.79;50.23
54455;BME280;40364;52.270;10.546;2023-09-30T09:35:19;101642.59;;;25.01;52.10
54455;BME280;40364;52.270;10.546;2023-09-30T09:37:55;101643.59;;;27.12;46.43
54455;BME280;40364;52.270;10.546;2023-09-30T09:40:22;101648.50;;;26.17;48.85
54455;BME280;40364;52.270;10.546;2023-09-30T09:42:49;101642.13;;;26.40;46.37
54455;BME280;40364;52.270;10.546;2023-09-30T09:45:19;101638.91;;;27.49;45.02
54455;BME280;40364;52.270;10.546;2023-09-30T09:47:46;101639.09;;;26.84;45.52
54455;BME280;40364;52.270;10.546;2023-09-30T09:50:13;101632.44;;;26.30;47.40
54455;BME280;40364;52.270;10.546;2023-09-30T09:52:40;101635.66;;;26.97;45.17
54455;BME280;40364;52.270;10.546;2023-09-30T09:55:09;101634.88;;;26.93;44.92
54455;BME280;40364;52.270;10.546;2023-09-30T09:57:36;101628.66;;;26.71;46.01
54455;BME280;40364;52.270;10.546;2023-09-30T10:00:04;101630.88;;;27.40;44.81
54455;BME280;40364;52.270;10.546;2023-09-30T10:02:36;101640.91;;;26.71;46.18
54455;BME280;40364;52.270;10.546;2023-09-30T10:05:05;101632.63;;;27.58;44.17
54455;BME280;40364;52.270;10.546;2023-09-30T10:07:33;101628.81;;;27.17;44.32
54455;BME280;40364;52.270;10.546;2023-09-30T10:10:01;101637.06;;;27.62;43.54
54455;BME280;40364;52.270;10.546;2023-09-30T10:12:36;101621.97;;;27.11;44.77
54455;BME280;40364;52.270;10.546;2023-09-30T10:17:57;101634.06;;;26.31;44.96
54455;BME280;40364;52.270;10.546;2023-09-30T10:20:26;101633.31;;;26.88;44.76
54455;BME280;40364;52.270;10.546;2023-09-30T10:25:34;101627.16;;;28.33;41.08
54455;BME280;40364;52.270;10.546;2023-09-30T10:33:25;101628.94;;;27.57;42.98
54455;BME280;40364;52.270;10.546;2023-09-30T10:35:52;101626.75;;;28.11;41.30
54455;BME280;40364;52.270;10.546;2023-09-30T10:38:37;101633.31;;;29.24;39.42
54455;BME280;40364;52.270;10.546;2023-09-30T10:41:07;101633.31;;;27.89;40.72
54455;BME280;40364;52.270;10.546;2023-09-30T10:43:34;101629.63;;;29.72;37.63
54455;BME280;40364;52.270;10.546;2023-09-30T10:46:01;101629.38;;;27.56;40.92
54455;BME280;40364;52.270;10.546;2023-09-30T10:48:38;101627.16;;;29.05;38.59
54455;BME280;40364;52.270;10.546;2023-09-30T10:51:13;101629.44;;;28.98;38.50
54455;BME280;40364;52.270;10.546;2023-09-30T10:53:43;101625.50;;;29.24;38.18
54455;BME280;40364;52.270;10.546;2023-09-30T10:56:11;101627.72;;;28.44;38.92
54455;BME280;40364;52.270;10.546;2023-09-30T10:58:41;101637.56;;;28.43;39.33
54455;BME280;40364;52.270;10.546;2023-09-30T11:01:07;101627.47;;;29.27;37.25
54455;BME280;40364;52.270;10.546;2023-09-30T11:03:34;101636.59;;;29.38;36.92
54455;BME280;40364;52.270;10.546;2023-09-30T11:06:02;101630.94;;;30.29;35.11
54455;BME280;40364;52.270;10.546;2023-09-30T11:08:30;101621.53;;;29.18;36.11
54455;BME280;40364;52.270;10.546;2023-09-30T11:10:56;101615.25;;;29.07;37.12
54455;BME280;40364;52.270;10.546;2023-09-30T11:13:25;101614.75;;;30.06;35.83
54455;BME280;40364;52.270;10.546;2023-09-30T11:15:59;101623.28;;;31.18;34.40
54455;BME280;40364;52.270;10.546;2023-09-30T11:18:25;101618.22;;;30.42;34.37
54455;BME280;40364;52.270;10.546;2023-09-30T11:20:53;101620.78;;;32.36;31.60
54455;BME280;40364;52.270;10.546;2023-09-30T11:23:30;101625.25;;;30.54;32.70
54455;BME280;40364;52.270;10.546;2023-09-30T11:25:57;101621.63;;;29.14;35.09
54455;BME280;40364;52.270;10.546;2023-09-30T11:28:23;101621.69;;;30.50;33.10
54455;BME280;40364;52.270;10.546;2023-09-30T11:30:57;101626.81;;;29.85;34.24
54455;BME280;40364;52.270;10.546;2023-09-30T11:33:24;101618.25;;;32.04;31.53
54455;BME280;40364;52.270;10.546;2023-09-30T11:35:57;101624.16;;;30.35;33.71
54455;BME280;40364;52.270;10.546;2023-09-30T11:38:25;101615.56;;;31.02;32.26
54455;BME280;40364;52.270;10.546;2023-09-30T11:41:00;101614.50;;;31.94;31.23
54455;BME280;40364;52.270;10.546;2023-09-30T11:43:29;101624.41;;;31.21;32.14
54455;BME280;40364;52.270;10.546;2023-09-30T11:46:05;101617.22;;;29.91;34.02
54455;BME280;40364;52.270;10.546;2023-09-30T11:48:34;101611.00;;;30.51;34.20
54455;BME280;40364;52.270;10.546;2023-09-30T11:51:01;101604.69;;;30.14;33.97
54455;BME280;40364;52.270;10.546;2023-09-30T11:53:28;101607.91;;;30.58;33.47
54455;BME280;40364;52.270;10.546;2023-09-30T11:55:55;101607.56;;;30.14;34.23
54455;BME280;40364;52.270;10.546;2023-09-30T11:58:25;101609.22;;;29.99;34.21
54455;BME280;40364;52.270;10.546;2023-09-30T12:00:53;101604.44;;;30.08;34.63
54455;BME280;40364;52.270;10.546;2023-09-30T12:03:19;101609.94;;;30.44;33.84
54455;BME280;40364;52.270;10.546;2023-09-30T12:05:46;101606.72;;;28.87;36.54
54455;BME280;40364;52.270;10.546;2023-09-30T12:08:13;101600.47;;;29.73;35.04
54455;BME280;40364;52.270;10.546;2023-09-30T12:10:40;101605.34;;;30.05;34.40
54455;BME280;40364;52.270;10.546;2023-09-30T12:13:06;101614.88;;;28.89;35.05
54455;BME280;40364;52.270;10.546;2023-09-30T12:15:34;101615.38;;;29.20;34.67
54455;BME280;40364;52.270;10.546;2023-09-30T12:18:00;101604.41;;;30.37;33.06
54455;BME280;40364;52.270;10.546;2023-09-30T12:20:27;101601.84;;;29.53;34.31
54455;BME280;40364;52.270;10.546;2023-09-30T12:22:53;101589.34;;;31.60;31.28
54455;BME280;40364;52.270;10.546;2023-09-30T12:25:19;101593.78;;;31.87;29.65
54455;BME280;40364;52.270;10.546;2023-09-30T12:27:46;101592.91;;;32.42;29.43
54455;BME280;40364;52.270;10.546;2023-09-30T12:30:13;101604.28;;;31.21;30.58
54455;BME280;40364;52.270;10.546;2023-09-30T12:32:41;101605.88;;;30.96;30.02
54455;BME280;40364;52.270;10.546;2023-09-30T12:35:07;101600.41;;;31.14;29.80
54455;BME280;40364;52.270;10.546;2023-09-30T12:37:35;101595.75;;;31.04;30.58
54455;BME280;40364;52.270;10.546;2023-09-30T12:40:03;101595.94;;;30.46;31.61
54455;BME280;40364;52.270;10.546;2023-09-30T12:42:32;101590.47;;;29.49;32.19
54455;BME280;40364;52.270;10.546;2023-09-30T12:45:00;101589.69;;;29.77;31.93
54455;BME280;40364;52.270;10.546;2023-09-30T12:47:26;101575.09;;;29.39;32.28
54455;BME280;40364;52.270;10.546;2023-09-30T12:49:54;101578.16;;;29.16;33.12
54455;BME280;40364;52.270;10.546;2023-09-30T12:52:21;101584.94;;;30.16;31.72